ΕΜΥ, Εθνική Μετεωρολογική Υπηρεσία - Δελτία Καιρού, Προγνώσεις

ΑΕΡΟΝΑΥΤΙΛΙΑ

GREEK AIRPORTS CODES

TAF LGTS 290500Z 2906/3006 VRB03KT 9999 SCT025 TEMPO 2906/2916 5000 RA PROB40 TEMPO 2907/2912 3000 TSRA FEW015CB BKN025 BECMG 2916/2918 34015KT FEW030 TEMPO 2918/3006 34015G25KT=

EUROPEAN AIRPORTS CODES

LPPT 291030Z 07004KT 030V110 CAVOK 23/15 Q1017=